createdAt,value
2022-09-03T00:00:56.548Z,3.10
2022-09-03T00:03:31.162Z,4.18
2022-09-03T00:06:10.592Z,6.15
2022-09-03T00:08:45.178Z,3.10
2022-09-03T00:11:19.394Z,3.85
2022-09-03T00:13:54.565Z,3.78
2022-09-03T00:16:26.973Z,6.25
2022-09-03T00:19:00.339Z,5.35
2022-09-03T00:21:38.093Z,3.95
2022-09-03T00:24:14.405Z,7.18
2022-09-03T00:26:46.549Z,4.40
2022-09-03T00:29:17.935Z,6.80
2022-09-03T00:31:51.925Z,7.07
2022-09-03T00:34:26.921Z,8.13
2022-09-03T00:36:55.481Z,4.85
2022-09-03T00:39:25.827Z,6.70
2022-09-03T00:42:11.186Z,4.32
2022-09-03T00:45:31.788Z,4.70
2022-09-03T00:48:10.481Z,7.47
2022-09-03T00:50:54.719Z,2.38
2022-09-03T00:53:36.248Z,2.63
2022-09-03T00:56:14.271Z,3.05
2022-09-03T00:58:56.837Z,3.83
2022-09-03T01:01:33.170Z,3.58
2022-09-03T01:04:18.227Z,3.13
2022-09-03T01:06:54.857Z,3.50
2022-09-03T01:09:42.728Z,5.10
2022-09-03T01:12:21.943Z,3.35
2022-09-03T01:15:01.664Z,3.67
2022-09-03T01:17:43.827Z,3.17
2022-09-03T01:20:48.356Z,2.60
2022-09-03T01:23:57.389Z,3.70
2022-09-03T01:27:07.103Z,2.15
2022-09-03T01:30:08.143Z,3.50
2022-09-03T01:32:48.738Z,3.78
2022-09-03T01:35:34.945Z,3.03
2022-09-03T01:38:21.570Z,4.03
2022-09-03T01:41:26.990Z,2.38
2022-09-03T01:44:05.503Z,5.03
2022-09-03T01:46:41.637Z,3.45
2022-09-03T01:49:22.794Z,2.25
2022-09-03T01:52:04.069Z,13.70
2022-09-03T01:54:52.861Z,3.40
2022-09-03T01:57:47.974Z,4.57
2022-09-03T02:00:20.481Z,3.90
2022-09-03T02:02:52.049Z,3.40
2022-09-03T02:05:24.702Z,4.18
2022-09-03T02:07:59.632Z,2.78
2022-09-03T02:10:34.000Z,4.40
2022-09-03T02:13:06.632Z,4.03
2022-09-03T02:15:37.433Z,5.60
2022-09-03T02:18:12.391Z,4.38
2022-09-03T02:20:41.258Z,9.82
2022-09-03T02:23:11.137Z,9.32
2022-09-03T02:25:42.779Z,6.65
2022-09-03T02:28:16.592Z,2.45
2022-09-03T02:30:46.673Z,5.40
2022-09-03T02:33:16.950Z,4.35
2022-09-03T02:35:45.915Z,9.45
2022-09-03T02:38:20.574Z,7.80
2022-09-03T02:40:51.698Z,9.23
2022-09-03T02:43:34.759Z,14.27
2022-09-03T02:46:05.851Z,8.32
2022-09-03T02:48:36.770Z,6.57
2022-09-03T02:51:13.786Z,12.80
2022-09-03T02:53:45.507Z,7.85
2022-09-03T02:56:14.202Z,3.38
2022-09-03T02:58:50.396Z,4.68
2022-09-03T03:01:23.922Z,3.22
2022-09-03T03:03:54.001Z,3.03
2022-09-03T03:06:25.126Z,3.10
2022-09-03T03:08:57.121Z,1.98
2022-09-03T03:11:27.321Z,4.00
2022-09-03T03:13:57.452Z,5.20
2022-09-03T03:16:29.100Z,3.47
2022-09-03T03:19:01.221Z,3.05
2022-09-03T03:21:31.036Z,2.88
2022-09-03T03:24:01.976Z,4.75
2022-09-03T03:26:31.819Z,4.38
2022-09-03T03:29:05.090Z,2.05
2022-09-03T03:31:35.091Z,2.13
2022-09-03T03:34:06.039Z,2.75
2022-09-03T03:36:35.405Z,3.58
2022-09-03T03:39:11.223Z,1.70
2022-09-03T03:41:41.110Z,2.35
2022-09-03T03:44:12.119Z,5.43
2022-09-03T03:46:41.889Z,4.97
2022-09-03T03:49:12.142Z,4.93
2022-09-03T03:51:41.182Z,2.55
2022-09-03T03:54:10.652Z,2.97
2022-09-03T03:56:44.451Z,3.10
2022-09-03T03:59:15.392Z,4.72
2022-09-03T04:01:44.204Z,2.90
2022-09-03T04:04:14.866Z,4.10
2022-09-03T04:06:43.660Z,3.25
2022-09-03T04:09:17.397Z,2.10
2022-09-03T04:11:47.779Z,3.05
2022-09-03T04:14:19.886Z,3.70
2022-09-03T04:16:49.621Z,3.00
2022-09-03T04:19:25.274Z,5.00
2022-09-03T04:22:00.231Z,3.88
2022-09-03T04:24:28.795Z,2.53
2022-09-03T04:26:57.863Z,4.53
2022-09-03T04:29:30.792Z,4.13
2022-09-03T04:32:16.624Z,2.05
2022-09-03T04:34:49.072Z,6.53
2022-09-03T04:37:20.205Z,2.33
2022-09-03T04:39:49.864Z,3.55
2022-09-03T04:42:18.059Z,3.38
2022-09-03T04:44:48.296Z,5.13
2022-09-03T04:47:16.931Z,2.65
2022-09-03T04:49:47.043Z,4.38
2022-09-03T04:52:17.998Z,7.95
2022-09-03T04:54:47.874Z,3.08
2022-09-03T04:57:16.719Z,4.43
2022-09-03T04:59:46.667Z,2.80
2022-09-03T05:02:15.778Z,2.47
2022-09-03T05:04:44.901Z,2.85
2022-09-03T05:07:16.041Z,2.63
2022-09-03T05:09:48.613Z,6.50
2022-09-03T05:12:20.624Z,3.08
2022-09-03T05:14:48.647Z,3.33
2022-09-03T05:17:20.143Z,5.18
2022-09-03T05:19:48.964Z,4.40
2022-09-03T05:22:23.356Z,2.90
2022-09-03T05:24:52.026Z,3.40
2022-09-03T05:27:20.839Z,2.88
2022-09-03T05:29:52.687Z,3.28
2022-09-03T05:32:21.999Z,2.55
2022-09-03T05:34:52.587Z,6.75
2022-09-03T05:37:22.436Z,5.57
2022-09-03T05:39:52.375Z,4.43
2022-09-03T05:42:24.655Z,3.33
2022-09-03T05:44:52.931Z,3.03
2022-09-03T05:47:21.798Z,3.55
2022-09-03T05:49:51.098Z,5.15
2022-09-03T05:52:24.479Z,5.45
2022-09-03T05:54:52.608Z,5.50
2022-09-03T05:57:20.711Z,6.80
2022-09-03T05:59:49.630Z,4.60
2022-09-03T06:02:23.007Z,3.25
2022-09-03T06:04:53.596Z,4.78
2022-09-03T06:07:26.218Z,3.70
2022-09-03T06:09:54.965Z,4.78
2022-09-03T06:12:25.632Z,5.05
2022-09-03T06:14:53.908Z,6.10
2022-09-03T06:17:27.025Z,3.83
2022-09-03T06:19:57.004Z,4.78
2022-09-03T06:22:29.464Z,4.75
2022-09-03T06:24:57.623Z,9.25
2022-09-03T06:27:31.161Z,6.28
2022-09-03T06:29:59.996Z,4.18
2022-09-03T06:32:32.451Z,3.97
2022-09-03T06:35:00.486Z,5.80
2022-09-03T06:37:30.160Z,5.43
2022-09-03T06:39:58.826Z,5.75
2022-09-03T06:42:28.815Z,5.45
2022-09-03T06:44:57.485Z,15.13
2022-09-03T06:47:25.719Z,6.28
2022-09-03T06:49:58.419Z,4.43
2022-09-03T06:52:27.218Z,5.88
2022-09-03T06:54:56.734Z,5.75
2022-09-03T06:57:25.343Z,7.72
2022-09-03T06:59:54.654Z,5.32
2022-09-03T07:02:23.922Z,9.88
2022-09-03T07:04:57.058Z,8.80
2022-09-03T07:09:53.025Z,12.52
2022-09-03T07:12:22.798Z,11.50
2022-09-03T07:14:52.757Z,7.28
2022-09-03T07:17:21.560Z,7.40
2022-09-03T07:19:49.556Z,19.08
2022-09-03T07:22:20.203Z,6.00
2022-09-03T07:24:48.433Z,7.20
2022-09-03T07:27:16.834Z,9.50
2022-09-03T07:29:46.421Z,7.00
2022-09-03T07:32:14.737Z,9.13
2022-09-03T07:34:46.025Z,8.10
2022-09-03T07:37:14.230Z,11.70
2022-09-03T07:39:43.344Z,7.57
2022-09-03T07:42:11.489Z,8.50
2022-09-03T07:44:39.614Z,10.55
2022-09-03T07:47:10.034Z,13.23
2022-09-03T07:49:38.432Z,9.55
2022-09-03T07:52:07.464Z,10.18
2022-09-03T07:54:41.215Z,9.73
2022-09-03T07:57:09.827Z,9.75
2022-09-03T07:59:41.681Z,9.65
2022-09-03T08:02:11.167Z,11.43
2022-09-03T08:04:42.233Z,10.43
2022-09-03T08:07:10.331Z,11.55
2022-09-03T08:09:38.615Z,11.60
2022-09-03T08:12:08.982Z,10.05
2022-09-03T08:14:37.029Z,11.68
2022-09-03T08:17:08.407Z,12.43
2022-09-03T08:19:40.240Z,10.50
2022-09-03T08:22:09.763Z,10.93
2022-09-03T08:24:38.803Z,9.75
2022-09-03T08:27:07.170Z,8.90
2022-09-03T08:29:37.469Z,10.82
2022-09-03T08:32:06.991Z,10.30
2022-09-03T08:34:35.454Z,13.10
2022-09-03T08:37:05.720Z,13.15
2022-09-03T08:39:34.852Z,14.55
2022-09-03T08:42:20.747Z,9.73
2022-09-03T08:44:55.067Z,10.40
2022-09-03T08:47:27.434Z,10.15
2022-09-03T08:50:01.173Z,11.85
2022-09-03T08:52:47.078Z,9.68
2022-09-03T08:55:24.857Z,11.52
2022-09-03T08:57:59.374Z,14.02
2022-09-03T09:00:38.503Z,9.75
2022-09-03T09:03:32.757Z,9.60
2022-09-03T09:06:12.178Z,10.45
2022-09-03T09:08:49.790Z,12.10
2022-09-03T09:11:30.355Z,11.82
2022-09-03T09:14:03.831Z,9.27
2022-09-03T09:16:39.910Z,11.32
2022-09-03T09:19:24.321Z,8.70
2022-09-03T09:21:56.044Z,9.32
2022-09-03T09:24:29.763Z,10.50
2022-09-03T09:27:00.822Z,8.57
2022-09-03T09:29:33.580Z,7.13
2022-09-03T09:32:02.331Z,7.30
2022-09-03T09:34:35.960Z,7.68
2022-09-03T09:37:07.220Z,8.70
2022-09-03T09:39:39.363Z,8.23
2022-09-03T09:42:09.979Z,6.88
2022-09-03T09:44:39.000Z,8.43
2022-09-03T09:47:11.142Z,7.75
2022-09-03T09:49:52.253Z,9.20
2022-09-03T09:52:22.219Z,6.97
2022-09-03T10:00:24.692Z,6.72
2022-09-03T10:02:54.859Z,5.63
2022-09-03T10:05:25.811Z,6.82
2022-09-03T10:08:04.965Z,6.30
2022-09-03T10:10:39.019Z,5.97
2022-09-03T10:13:15.796Z,6.30
2022-09-03T10:15:52.182Z,10.32
2022-09-03T10:18:31.570Z,9.18
2022-09-03T10:21:07.762Z,7.53
2022-09-03T10:23:50.312Z,6.68
2022-09-03T10:26:33.765Z,9.23
2022-09-03T10:29:05.863Z,8.02
2022-09-03T10:31:47.356Z,9.00
2022-09-03T10:34:23.413Z,7.10
2022-09-03T10:37:01.991Z,6.55
2022-09-03T10:39:45.879Z,6.38
2022-09-03T10:42:35.736Z,7.53
2022-09-03T10:45:17.766Z,6.47
2022-09-03T10:48:12.624Z,7.25
2022-09-03T10:50:51.563Z,8.95
2022-09-03T10:53:43.271Z,7.22
2022-09-03T10:56:18.705Z,7.55
2022-09-03T10:59:02.988Z,6.82
2022-09-03T11:01:38.712Z,9.02
2022-09-03T11:04:24.338Z,10.02
2022-09-03T11:06:55.800Z,7.45
2022-09-03T11:09:29.045Z,8.05
2022-09-03T11:12:00.899Z,7.75
2022-09-03T11:14:39.357Z,6.88
2022-09-03T11:17:13.127Z,5.10
2022-09-03T11:19:50.945Z,7.40
2022-09-03T11:22:20.988Z,7.07
2022-09-03T11:24:54.992Z,5.80
2022-09-03T11:27:38.400Z,6.10
2022-09-03T11:30:09.631Z,6.18
2022-09-03T11:32:49.842Z,4.95
2022-09-03T11:35:31.577Z,3.95
2022-09-03T11:38:02.394Z,4.43
2022-09-03T11:40:34.653Z,3.85
2022-09-03T11:43:14.761Z,3.97
2022-09-03T11:45:44.431Z,4.18
2022-09-03T11:48:22.953Z,4.28
2022-09-03T11:50:56.723Z,4.47
2022-09-03T11:53:30.193Z,5.00
2022-09-03T11:56:02.124Z,2.75
2022-09-03T11:58:33.818Z,3.53
2022-09-03T12:01:06.270Z,3.70
2022-09-03T12:03:44.531Z,4.82
2022-09-03T12:06:52.093Z,3.60
2022-09-03T12:09:48.195Z,3.60
2022-09-03T12:12:34.195Z,3.85
2022-09-03T12:15:08.861Z,3.50
2022-09-03T12:17:45.410Z,2.63
2022-09-03T12:20:15.083Z,3.65
2022-09-03T12:22:45.101Z,4.05
2022-09-03T12:25:16.334Z,3.30
2022-09-03T12:27:46.689Z,3.80
2022-09-03T12:30:18.424Z,3.50
2022-09-03T12:32:47.485Z,3.35
2022-09-03T12:38:09.489Z,4.85
2022-09-03T12:43:41.857Z,4.63
2022-09-03T12:46:16.428Z,3.35
2022-09-03T12:51:49.170Z,3.67
2022-09-03T12:54:22.284Z,5.45
2022-09-03T12:56:56.844Z,4.43
2022-09-03T12:59:27.626Z,3.70
2022-09-03T13:01:59.655Z,3.70
2022-09-03T13:04:30.723Z,3.78
2022-09-03T13:07:05.275Z,4.13
2022-09-03T13:09:38.961Z,4.78
2022-09-03T13:12:07.861Z,4.15
2022-09-03T13:14:52.565Z,4.35
2022-09-03T13:17:38.679Z,5.07
2022-09-03T13:20:41.155Z,5.00
2022-09-03T13:23:25.761Z,6.60
2022-09-03T13:26:06.266Z,4.38
2022-09-03T13:28:44.503Z,6.45
2022-09-03T13:31:27.323Z,5.90
2022-09-03T13:34:01.306Z,6.10
2022-09-03T13:36:38.817Z,5.53
2022-09-03T13:39:12.585Z,6.07
2022-09-03T13:41:50.025Z,4.97
2022-09-03T13:44:24.353Z,5.18
2022-09-03T13:46:55.946Z,5.63
2022-09-03T13:49:57.272Z,3.95
2022-09-03T13:52:32.381Z,3.97
2022-09-03T13:55:08.309Z,5.93
2022-09-03T13:57:48.188Z,4.78
2022-09-03T14:00:29.115Z,4.20
2022-09-03T14:03:07.590Z,4.70
2022-09-03T14:05:50.225Z,3.63
2022-09-03T14:08:26.936Z,3.58
2022-09-03T14:11:04.991Z,5.63
2022-09-03T14:13:48.343Z,4.82
2022-09-03T14:16:27.870Z,4.45
2022-09-03T14:19:02.850Z,7.05
2022-09-03T14:21:37.176Z,4.13
2022-09-03T14:24:13.451Z,6.18
2022-09-03T14:26:51.964Z,5.93
2022-09-03T14:29:26.961Z,4.70
2022-09-03T14:32:18.009Z,5.75
2022-09-03T14:34:58.283Z,3.90
2022-09-03T14:37:53.349Z,5.32
2022-09-03T14:40:27.477Z,6.70
2022-09-03T14:43:14.072Z,4.65
2022-09-03T14:49:00.551Z,6.63
2022-09-03T14:51:46.493Z,4.65
2022-09-03T14:54:31.831Z,5.97
2022-09-03T14:57:12.948Z,6.72
2022-09-03T15:00:18.655Z,8.77
2022-09-03T15:03:27.505Z,5.13
2022-09-03T15:06:14.131Z,6.47
2022-09-03T15:08:57.932Z,10.77
2022-09-03T15:11:31.890Z,7.47
2022-09-03T15:14:13.349Z,7.32
2022-09-03T15:16:56.766Z,6.53
2022-09-03T15:20:04.695Z,6.00
2022-09-03T15:22:50.058Z,5.88
2022-09-03T15:25:24.908Z,6.75
2022-09-03T15:28:13.243Z,5.50
2022-09-03T15:30:50.085Z,5.20
2022-09-03T15:33:29.161Z,5.57
2022-09-03T15:36:12.672Z,5.57
2022-09-03T15:38:51.513Z,7.70
2022-09-03T15:41:31.261Z,7.35
2022-09-03T15:44:02.091Z,9.52
2022-09-03T15:46:39.066Z,6.78
2022-09-03T15:49:13.037Z,6.28
2022-09-03T15:51:56.492Z,9.63
2022-09-03T15:54:36.347Z,8.68
2022-09-03T15:57:10.598Z,10.40
2022-09-03T15:59:44.800Z,7.35
2022-09-03T16:02:17.194Z,7.45
2022-09-03T16:04:57.211Z,9.63
2022-09-03T16:07:29.841Z,17.70
2022-09-03T16:10:25.945Z,12.52
2022-09-03T16:13:02.177Z,11.27
2022-09-03T16:15:34.911Z,9.52
2022-09-03T16:18:10.593Z,12.77
2022-09-03T16:20:44.877Z,11.60
2022-09-03T16:23:21.386Z,12.38
2022-09-03T16:25:57.320Z,9.82
2022-09-03T16:28:31.693Z,11.98
2022-09-03T16:31:12.777Z,11.77
2022-09-03T16:33:51.258Z,9.18
2022-09-03T16:36:33.780Z,12.30
2022-09-03T16:39:11.069Z,9.38
2022-09-03T16:41:49.277Z,11.23
2022-09-03T16:44:22.403Z,7.95
2022-09-03T16:47:00.145Z,10.88
2022-09-03T16:49:41.854Z,9.55
2022-09-03T16:52:18.351Z,11.18
2022-09-03T16:55:03.589Z,11.05
2022-09-03T16:57:46.571Z,11.30
2022-09-03T17:00:19.560Z,10.75
2022-09-03T17:06:03.906Z,10.20
2022-09-03T17:08:43.239Z,10.98
2022-09-03T17:11:28.241Z,9.00
2022-09-03T17:14:18.330Z,11.35
2022-09-03T17:16:54.665Z,11.38
2022-09-03T17:19:28.392Z,13.45
2022-09-03T17:22:17.281Z,10.68
2022-09-03T17:24:53.223Z,9.10
2022-09-03T17:27:50.600Z,8.98
2022-09-03T17:30:30.797Z,9.70
2022-09-03T17:33:44.698Z,9.05
2022-09-03T17:39:17.284Z,10.38
2022-09-03T17:41:50.036Z,9.33
2022-09-03T17:44:26.873Z,9.88
2022-09-03T17:47:26.451Z,11.55
2022-09-03T17:49:58.605Z,10.73
2022-09-03T17:52:32.176Z,14.50
2022-09-03T17:55:03.138Z,12.45
2022-09-03T17:57:39.959Z,11.73
2022-09-03T18:00:12.489Z,13.27
2022-09-03T18:02:45.986Z,12.45
2022-09-03T18:05:23.374Z,10.80
2022-09-03T18:08:00.292Z,10.63
2022-09-03T18:10:36.147Z,11.70
2022-09-03T18:13:15.301Z,13.13
2022-09-03T18:15:55.871Z,17.83
2022-09-03T18:18:32.382Z,10.52
2022-09-03T18:21:26.640Z,15.75
2022-09-03T18:24:24.365Z,14.50
2022-09-03T18:27:18.177Z,11.52
2022-09-03T18:30:09.572Z,12.82
2022-09-03T18:32:57.901Z,12.27
2022-09-03T18:35:48.159Z,14.68
2022-09-03T18:38:36.214Z,19.30
2022-09-03T18:41:28.833Z,16.58
2022-09-03T18:44:24.648Z,15.47
2022-09-03T18:50:32.841Z,14.60
2022-09-03T18:53:28.991Z,14.85
2022-09-03T18:56:27.589Z,12.23
2022-09-03T18:59:32.576Z,14.07
2022-09-03T19:02:24.233Z,16.63
2022-09-03T19:05:24.667Z,14.95
2022-09-03T19:08:17.102Z,18.38
2022-09-03T19:11:10.365Z,16.38
2022-09-03T19:13:58.527Z,14.30
2022-09-03T19:17:00.346Z,14.63
2022-09-03T19:20:11.981Z,13.65
2022-09-03T19:23:00.407Z,13.30
2022-09-03T19:25:50.132Z,19.52
2022-09-03T19:28:41.622Z,16.08
2022-09-03T19:31:43.534Z,13.05
2022-09-03T19:34:41.228Z,16.45
2022-09-03T19:37:34.336Z,15.60
2022-09-03T19:40:37.554Z,13.82
2022-09-03T19:43:37.084Z,14.95
2022-09-03T19:46:34.039Z,14.05
2022-09-03T19:49:29.917Z,15.40
2022-09-03T19:52:22.404Z,28.48
2022-09-03T19:55:14.891Z,13.75
2022-09-03T19:58:03.609Z,14.07
2022-09-03T20:00:51.198Z,13.05
2022-09-03T20:03:42.864Z,12.35
2022-09-03T20:06:30.832Z,11.35
2022-09-03T20:09:26.016Z,14.55
2022-09-03T20:11:59.060Z,13.07
2022-09-03T20:17:11.345Z,12.63
2022-09-03T20:19:53.044Z,12.40
2022-09-03T20:22:33.573Z,15.20
2022-09-03T20:25:17.362Z,15.68
2022-09-03T20:27:54.077Z,14.82
2022-09-03T20:30:27.042Z,13.85
2022-09-03T20:33:22.808Z,13.75
2022-09-03T20:36:05.077Z,13.50
2022-09-03T20:38:55.100Z,12.07
2022-09-03T20:41:31.082Z,13.35
2022-09-03T20:44:31.245Z,13.27
2022-09-03T20:47:18.884Z,11.85
2022-09-03T20:49:57.099Z,14.27
2022-09-03T20:52:45.761Z,14.02
2022-09-03T20:55:24.125Z,11.95
2022-09-03T20:58:01.115Z,15.20
2022-09-03T21:00:49.459Z,15.02
2022-09-03T21:03:21.533Z,13.40
2022-09-03T21:05:59.060Z,16.65
2022-09-03T21:08:53.696Z,16.75
2022-09-03T21:11:29.225Z,16.80
2022-09-03T21:14:05.192Z,18.95
2022-09-03T21:16:39.614Z,16.90
2022-09-03T21:19:13.009Z,15.00
2022-09-03T21:21:49.578Z,15.57
2022-09-03T21:24:26.242Z,15.82
2022-09-03T21:27:04.342Z,18.77
2022-09-03T21:29:39.126Z,13.40
2022-09-03T21:32:16.020Z,10.82
2022-09-03T21:34:51.699Z,12.63
2022-09-03T21:37:21.889Z,11.02
2022-09-03T21:39:55.733Z,11.18
2022-09-03T21:42:33.042Z,14.35
2022-09-03T21:45:07.621Z,9.95
2022-09-03T21:47:42.336Z,11.45
2022-09-03T21:50:18.979Z,12.18
2022-09-03T21:52:53.995Z,10.20
2022-09-03T21:55:33.713Z,14.88
2022-09-03T21:58:15.268Z,15.25
2022-09-03T22:00:45.390Z,13.55
2022-09-03T22:03:14.512Z,13.38
2022-09-03T22:05:52.154Z,11.35
2022-09-03T22:08:27.434Z,12.55
2022-09-03T22:11:04.982Z,11.95
2022-09-03T22:13:46.484Z,14.63
2022-09-03T22:16:23.858Z,18.48
2022-09-03T22:18:52.316Z,12.68
2022-09-03T22:21:23.619Z,14.18
2022-09-03T22:24:08.059Z,13.80
2022-09-03T22:26:49.125Z,12.77
2022-09-03T22:29:29.347Z,12.65
2022-09-03T22:32:05.621Z,13.82
2022-09-03T22:34:56.809Z,14.55
2022-09-03T22:37:35.245Z,14.18
2022-09-03T22:40:13.287Z,15.60
2022-09-03T22:43:08.682Z,13.10
2022-09-03T22:45:55.885Z,15.38
2022-09-03T22:48:36.839Z,15.48
2022-09-03T22:51:05.811Z,16.42
2022-09-03T22:53:44.494Z,13.25
2022-09-03T22:56:14.747Z,14.02
2022-09-03T22:58:50.433Z,17.05
2022-09-03T23:01:22.257Z,14.18
2022-09-03T23:03:56.283Z,15.93
2022-09-03T23:06:33.748Z,13.85
2022-09-03T23:09:08.509Z,15.88
2022-09-03T23:11:43.782Z,13.52
2022-09-03T23:14:16.105Z,13.25
2022-09-03T23:16:51.183Z,15.97
2022-09-03T23:19:33.359Z,13.57
2022-09-03T23:22:06.355Z,19.35
2022-09-03T23:24:39.789Z,17.27
2022-09-03T23:27:11.716Z,13.57
2022-09-03T23:29:43.926Z,16.95
2022-09-03T23:32:12.230Z,16.30
2022-09-03T23:34:45.813Z,20.50
2022-09-03T23:37:47.333Z,22.77
2022-09-03T23:40:32.421Z,19.08
2022-09-03T23:43:21.247Z,23.50
2022-09-03T23:46:03.274Z,21.73
2022-09-03T23:48:43.193Z,22.98
2022-09-03T23:51:23.993Z,26.13
2022-09-03T23:54:04.252Z,23.35
2022-09-03T23:56:53.430Z,25.60
2022-09-03T23:59:28.910Z,20.75
